Time;durP1;ratioP1;P1;durP2;ratioP2;P2;SDS_P1;SDS_P2;PMS_P1;PMS_P2;Temp;Humidity;BMP_temperature;BMP_pressure;BME280_temperature;BME280_humidity;BME280_pressure;Samples;Min_cycle;Max_cycle;Signal;HPM_P1;HPM_P2
2022/02/08 00:01:16;;;;;;;28.10;6.37;;;;;;;1.09;73.30;97277.20;1661697;85;28144;-84
2022/02/08 00:03:43;;;;;;;19.52;6.00;;;;;;;1.12;73.37;97272.08;1662031;85;26016;-84
2022/02/08 00:06:28;;;;;;;25.50;6.33;;;;;;;1.14;73.30;97286.05;1662082;86;25677;-84
2022/02/08 00:08:38;;;;;;;24.92;6.70;;;;;;;1.12;73.25;97287.19;1660025;85;25738;-83
2022/02/08 00:11:05;;;;;;;25.08;5.65;;;;;;;1.05;73.27;97294.97;1662292;85;25506;-84
2022/02/08 00:13:32;;;;;;;29.77;7.17;;;;;;;1.05;73.31;97289.65;1662108;86;28414;-84
2022/02/08 00:15:58;;;;;;;24.25;6.65;;;;;;;1.03;73.34;97295.12;1662066;86;25804;-84
2022/02/08 00:18:25;;;;;;;23.83;6.05;;;;;;;1.01;73.45;97301.08;1662082;86;25810;-84
2022/02/08 00:20:52;;;;;;;24.82;6.70;;;;;;;0.98;73.46;97300.05;1661696;86;25751;-85
2022/02/08 00:23:18;;;;;;;21.62;6.72;;;;;;;0.99;73.56;97307.03;1662150;86;25735;-85
2022/02/08 00:25:45;;;;;;;26.82;5.58;;;;;;;0.99;73.58;97297.73;1662059;86;27360;-84
2022/02/08 00:28:11;;;;;;;27.45;6.83;;;;;;;0.97;73.48;97301.03;1661994;86;25742;-84
2022/02/08 00:30:38;;;;;;;27.07;6.85;;;;;;;0.94;73.48;97305.35;1661909;86;25749;-83
2022/02/08 00:33:04;;;;;;;33.00;7.05;;;;;;;0.94;73.53;97315.98;1662144;86;26267;-85
2022/02/08 00:35:31;;;;;;;22.73;6.62;;;;;;;0.91;73.65;97314.95;1662108;86;26518;-85
2022/02/08 00:37:58;;;;;;;30.92;6.78;;;;;;;0.92;73.61;97317.95;1662149;86;27366;-83
2022/02/08 00:40:26;;;;;;;28.10;6.97;;;;;;;0.95;73.74;97318.98;1661978;86;25905;-84
2022/02/08 00:42:53;;;;;;;28.02;6.22;;;;;;;1.00;73.66;97319.84;1661993;85;25778;-84
2022/02/08 00:45:34;;;;;;;33.23;9.25;;;;;;;0.99;73.66;97324.31;1662746;86;26468;-84
2022/02/08 00:47:56;;;;;;;33.60;7.58;;;;;;;0.97;73.72;97324.95;1661320;85;25778;-83
2022/02/08 00:50:19;;;;;;;22.73;6.30;;;;;;;0.95;73.79;97333.60;1662635;85;27445;-83
2022/02/08 00:52:46;;;;;;;25.90;6.53;;;;;;;0.98;73.74;97333.77;1662960;85;25874;-84
2022/02/08 00:55:14;;;;;;;24.77;7.20;;;;;;;1.00;73.70;97332.63;1663094;85;25891;-84
2022/02/08 00:57:41;;;;;;;21.77;6.05;;;;;;;1.02;73.69;97333.31;1662823;85;25819;-83
2022/02/08 01:00:09;;;;;;;24.98;5.87;;;;;;;1.02;73.70;97330.66;1663118;86;25833;-85
2022/02/08 01:02:35;;;;;;;25.70;6.08;;;;;;;1.03;73.69;97336.32;1663013;85;27605;-83
2022/02/08 01:05:06;;;;;;;27.17;5.95;;;;;;;1.04;73.71;97337.98;1663009;85;26415;-83
2022/02/08 01:07:31;;;;;;;30.72;6.50;;;;;;;1.08;73.68;97339.36;1662986;85;25783;-83
2022/02/08 01:10:00;;;;;;;27.32;5.45;;;;;;;1.09;73.66;97343.66;1662912;85;26196;-83
2022/02/08 01:12:31;;;;;;;22.35;6.53;;;;;;;1.12;73.67;97339.03;1663152;85;25698;-83
2022/02/08 01:14:58;;;;;;;25.57;5.95;;;;;;;1.05;73.65;97340.99;1663044;86;27462;-83
2022/02/08 01:17:28;;;;;;;24.12;5.87;;;;;;;1.03;73.74;97341.63;1662991;85;25926;-84
2022/02/08 01:20:04;;;;;;;26.95;6.47;;;;;;;1.05;73.78;97346.31;1663060;86;25837;-83
2022/02/08 01:22:25;;;;;;;29.87;6.17;;;;;;;1.07;73.82;97340.35;1662435;85;25917;-84
2022/02/08 01:24:52;;;;;;;27.02;7.10;;;;;;;1.08;73.88;97346.02;1662878;86;25777;-82
2022/02/08 01:27:25;;;;;;;23.02;5.33;;;;;;;1.07;73.83;97343.01;1663212;85;27601;-84
2022/02/08 01:32:37;;;;;;;26.35;5.58;;;;;;;1.05;73.81;97350.30;1663266;86;25684;-85
2022/02/08 01:37:45;;;;;;;25.82;5.67;;;;;;;1.09;73.79;97352.97;1663225;86;25719;-85
2022/02/08 01:40:27;;;;;;;23.85;5.40;;;;;;;1.09;73.73;97354.30;1661660;85;27462;-85
2022/02/08 01:43:25;;;;;;;18.62;4.78;;;;;;;1.11;73.73;97348.00;1662073;85;25739;-85
2022/02/08 01:45:41;;;;;;;28.45;6.03;;;;;;;1.14;73.71;97353.02;1661037;86;26507;-85
2022/02/08 01:48:09;;;;;;;24.20;5.35;;;;;;;1.11;73.69;97351.98;1661656;85;26518;-85
2022/02/08 01:50:34;;;;;;;24.77;5.62;;;;;;;1.09;73.70;97361.44;1662999;85;25691;-84
2022/02/08 01:53:02;;;;;;;29.40;6.37;;;;;;;1.11;73.77;97358.14;1663237;86;27389;-85
2022/02/08 01:55:30;;;;;;;30.55;6.20;;;;;;;1.11;73.76;97367.94;1663074;86;25316;-85
2022/02/08 01:57:57;;;;;;;24.65;6.03;;;;;;;1.13;73.70;97364.63;1663171;85;25785;-85
2022/02/08 02:00:23;;;;;;;24.70;6.65;;;;;;;1.13;73.70;97363.30;1663189;86;25767;-84
2022/02/08 02:02:50;;;;;;;26.27;5.95;;;;;;;1.14;73.74;97368.97;1663188;86;25737;-84
2022/02/08 02:05:17;;;;;;;22.40;5.30;;;;;;;1.16;73.77;97368.32;1663093;86;27445;-84
2022/02/08 02:07:48;;;;;;;24.60;5.47;;;;;;;1.18;73.71;97366.34;1663083;86;25742;-84
2022/02/08 02:10:18;;;;;;;22.85;5.87;;;;;;;1.18;73.70;97367.68;1662863;86;25802;-85
2022/02/08 02:13:01;;;;;;;28.98;6.55;;;;;;;1.17;73.72;97367.34;1663264;85;27327;-84
2022/02/08 02:15:29;;;;;;;20.43;6.28;;;;;;;1.19;73.73;97377.33;1662979;85;25621;-84
2022/02/08 02:17:56;;;;;;;26.80;5.62;;;;;;;1.16;73.78;97378.95;1663159;85;28352;-84
2022/02/08 02:20:23;;;;;;;17.00;4.70;;;;;;;1.12;73.85;97381.08;1663051;86;25313;-83
2022/02/08 02:22:50;;;;;;;20.88;5.20;;;;;;;1.15;73.90;97390.58;1663181;85;25732;-84
2022/02/08 02:25:27;;;;;;;21.77;5.33;;;;;;;1.15;73.94;97395.89;1662938;86;26336;-83
2022/02/08 02:27:58;;;;;;;18.27;4.78;;;;;;;1.14;74.00;97394.22;1662890;86;26077;-83
2022/02/08 02:30:27;;;;;;;22.70;5.45;;;;;;;1.11;74.02;97398.02;1663164;85;27342;-83
2022/02/08 02:32:54;;;;;;;24.43;5.37;;;;;;;1.10;74.15;97401.66;1663178;85;26244;-83
2022/02/08 02:35:20;;;;;;;26.75;5.87;;;;;;;1.12;74.19;97405.00;1663066;86;25818;-84
2022/02/08 02:37:47;;;;;;;23.18;5.20;;;;;;;1.08;74.19;97409.81;1663179;86;25933;-84
2022/02/08 02:40:16;;;;;;;17.55;4.30;;;;;;;1.06;74.31;97419.76;1663068;86;25714;-84
2022/02/08 02:42:42;;;;;;;22.93;5.60;;;;;;;1.04;74.34;97411.09;1674047;85;27346;-84
2022/02/08 02:45:10;;;;;;;20.32;5.15;;;;;;;0.97;74.42;97414.48;1662410;85;25808;-84
2022/02/08 02:47:38;;;;;;;24.35;5.25;;;;;;;0.95;74.59;97429.28;1662029;86;25859;-86
2022/02/08 02:50:09;;;;;;;28.90;5.87;;;;;;;0.95;74.68;97427.13;1662154;86;25938;-84
2022/02/08 02:52:34;;;;;;;17.35;4.90;;;;;;;0.97;74.68;97425.95;1662014;86;25688;-84
2022/02/08 02:55:01;;;;;;;17.77;4.00;;;;;;;1.01;74.70;97434.47;1661657;86;27436;-85
2022/02/08 02:57:28;;;;;;;15.35;4.85;;;;;;;1.05;74.60;97432.70;1662017;86;25699;-83
2022/02/08 03:00:05;;;;;;;21.77;4.60;;;;;;;1.02;74.56;97436.98;1662158;86;25785;-86
2022/02/08 03:02:35;;;;;;;21.12;4.90;;;;;;;1.03;74.61;97430.69;1660502;86;25907;-85
2022/02/08 03:05:02;;;;;;;20.97;4.72;;;;;;;1.05;74.54;97440.68;1660355;86;25819;-84
2022/02/08 03:20:48;;;;;;;17.35;4.58;;;;;;;0.99;74.70;97463.86;1686616;84;27533;-83
2022/02/08 03:23:15;;;;;;;20.57;4.83;;;;;;;0.97;74.73;97472.97;1684695;85;25748;-82
2022/02/08 03:25:42;;;;;;;17.42;4.65;;;;;;;0.95;74.78;97474.47;1654210;86;26332;-82
2022/02/08 03:28:09;;;;;;;16.35;4.40;;;;;;;0.96;74.81;97474.81;1635171;87;25835;-83
2022/02/08 03:30:35;;;;;;;17.37;5.20;;;;;;;0.97;74.89;97490.23;1635167;87;25823;-84
2022/02/08 03:33:03;;;;;;;21.50;4.53;;;;;;;0.94;75.00;97494.06;1635143;87;27532;-84
2022/02/08 03:35:30;;;;;;;20.75;5.28;;;;;;;0.96;75.02;97498.73;1636746;86;25798;-84
2022/02/08 03:38:03;;;;;;;17.95;4.12;;;;;;;0.94;75.08;97494.06;1662202;86;25786;-84
2022/02/08 03:45:53;;;;;;;12.55;3.98;;;;;;;0.97;75.01;97505.70;1661942;85;27459;-84
2022/02/08 03:48:22;;;;;;;11.75;3.77;;;;;;;1.00;74.99;97500.09;1662245;85;25758;-83
2022/02/08 03:51:01;;;;;;;16.80;4.20;;;;;;;0.99;75.00;97511.70;1661952;85;26415;-87
2022/02/08 03:53:26;;;;;;;16.77;5.12;;;;;;;0.98;74.99;97514.02;1661543;85;25751;-82
2022/02/08 03:55:53;;;;;;;20.40;4.47;;;;;;;1.00;75.09;97517.86;1662222;85;25772;-83
2022/02/08 03:58:20;;;;;;;19.05;4.80;;;;;;;0.96;75.08;97517.34;1662052;85;27492;-84
2022/02/08 04:01:03;;;;;;;17.40;4.33;;;;;;;0.91;75.24;97535.55;1662085;86;25774;-82
2022/02/08 04:03:27;;;;;;;15.93;5.08;;;;;;;0.94;75.34;97540.57;1661451;85;25954;-83
2022/02/08 04:05:54;;;;;;;19.40;4.47;;;;;;;0.92;75.40;97535.05;1662099;85;25798;-84
2022/02/08 04:08:21;;;;;;;12.70;4.47;;;;;;;0.91;75.44;97548.83;1662127;85;25743;-82
2022/02/08 04:10:48;;;;;;;23.18;5.35;;;;;;;0.89;75.35;97548.14;1662059;86;27604;-82
2022/02/08 04:13:25;;;;;;;18.07;4.67;;;;;;;0.83;75.47;97552.73;1662066;86;26090;-83
2022/02/08 04:18:43;;;;;;;15.68;4.65;;;;;;;0.89;75.53;97567.23;1661952;86;25686;-82
2022/02/08 04:32:16;;;;;;;24.12;5.40;;;;;;;0.99;75.64;97592.78;1662100;85;26546;-82
2022/02/08 04:40:06;;;;;;;15.98;5.20;;;;;;;0.91;75.70;97595.34;1662017;85;25730;-83
2022/02/08 04:42:30;;;;;;;21.85;4.70;;;;;;;0.88;75.72;97607.59;1658756;85;25641;-83
2022/02/08 04:44:58;;;;;;;14.73;4.72;;;;;;;0.88;75.70;97602.27;1660671;85;26465;-82
2022/02/08 04:47:27;;;;;;;13.38;4.72;;;;;;;0.92;75.66;97607.66;1662030;85;25744;-82
2022/02/08 04:49:50;;;;;;;20.25;5.17;;;;;;;0.97;75.59;97610.69;1662514;85;27425;-82
2022/02/08 04:52:17;;;;;;;20.15;4.37;;;;;;;0.97;75.41;97608.52;1662969;85;25787;-83
2022/02/08 04:57:25;;;;;;;15.30;3.98;;;;;;;0.96;75.32;97624.99;1663109;86;25858;-82
2022/02/08 05:45:48;;;;;;;36.38;17.40;;;;;;;0.94;75.22;97678.78;1680477;84;25751;-82
2022/02/08 05:48:08;;;;;;;35.65;13.05;;;;;;;0.96;75.25;97674.66;1660662;85;25813;-81
2022/02/08 05:50:54;;;;;;;25.90;6.90;;;;;;;0.98;75.23;97679.31;1661707;85;26521;-82
2022/02/08 05:53:30;;;;;;;17.80;6.42;;;;;;;0.96;75.15;97681.30;1660648;85;25743;-83
2022/02/08 05:55:56;;;;;;;23.73;9.83;;;;;;;0.97;75.18;97690.44;1662016;85;28750;-82
2022/02/08 05:58:23;;;;;;;20.45;8.85;;;;;;;0.96;75.12;97683.47;1662096;86;26106;-82
2022/02/08 06:00:50;;;;;;;31.65;9.15;;;;;;;0.98;75.01;97692.60;1662067;86;25815;-82
2022/02/08 06:03:16;;;;;;;26.42;10.38;;;;;;;1.00;74.96;97695.95;1662019;86;25798;-83
2022/02/08 06:05:43;;;;;;;27.90;8.73;;;;;;;1.02;74.93;97694.84;1661533;85;26951;-82
2022/02/08 06:08:10;;;;;;;26.90;8.75;;;;;;;1.03;74.83;97703.16;1661889;85;27443;-82
2022/02/08 06:10:46;;;;;;;24.45;8.15;;;;;;;1.03;74.78;97704.49;1662014;86;25913;-82
2022/02/08 06:13:05;;;;;;;22.02;7.00;;;;;;;1.05;74.79;97709.17;1661225;85;25758;-82
2022/02/08 06:15:32;;;;;;;25.32;7.80;;;;;;;1.03;74.74;97709.81;1662257;85;26271;-81
2022/02/08 06:17:58;;;;;;;28.80;6.87;;;;;;;1.05;74.81;97714.98;1662368;86;25850;-82
2022/02/08 06:20:25;;;;;;;25.30;8.05;;;;;;;1.03;74.74;97711.14;1662323;86;27585;-82
2022/02/08 06:22:52;;;;;;;23.85;7.58;;;;;;;1.02;74.78;97717.44;1662152;86;25902;-81
2022/02/08 06:25:19;;;;;;;23.73;7.12;;;;;;;1.02;74.76;97712.61;1662161;86;25731;-81
2022/02/08 06:27:50;;;;;;;19.25;6.92;;;;;;;1.04;74.70;97718.14;1662176;86;25850;-81
2022/02/08 06:30:18;;;;;;;22.90;6.78;;;;;;;1.03;74.65;97715.13;1662349;85;25762;-82
2022/02/08 06:32:46;;;;;;;22.73;7.40;;;;;;;0.93;74.65;97718.80;1662128;85;27463;-83
2022/02/08 06:35:23;;;;;;;21.85;7.15;;;;;;;0.96;74.74;97723.34;1662204;86;25770;-82
2022/02/08 06:37:44;;;;;;;23.35;7.35;;;;;;;0.99;74.76;97716.39;1661442;85;25905;-81
2022/02/08 06:40:12;;;;;;;22.80;7.17;;;;;;;1.02;74.67;97725.41;1662324;85;26519;-82
2022/02/08 06:42:45;;;;;;;26.50;6.85;;;;;;;1.05;74.60;97722.96;1662242;86;25218;-82
2022/02/08 06:45:10;;;;;;;20.82;6.40;;;;;;;1.04;74.53;97726.11;1660861;85;27467;-80
2022/02/08 06:47:38;;;;;;;20.65;7.05;;;;;;;1.03;74.53;97733.73;1661793;85;25809;-81
2022/02/08 06:50:06;;;;;;;28.05;6.37;;;;;;;1.04;74.55;97738.07;1662148;85;25775;-82
2022/02/08 06:52:33;;;;;;;24.47;7.25;;;;;;;1.07;74.48;97744.93;1662195;85;25859;-83
2022/02/08 06:55:01;;;;;;;26.07;6.58;;;;;;;1.03;74.47;97741.71;1662170;86;25711;-83
2022/02/08 06:57:29;;;;;;;23.27;7.22;;;;;;;1.01;74.59;97741.02;1662193;85;27461;-83
2022/02/08 07:00:01;;;;;;;21.10;6.72;;;;;;;1.00;74.64;97738.49;1662044;86;25289;-82
2022/02/08 07:02:24;;;;;;;20.55;6.92;;;;;;;1.03;74.69;97746.19;1661740;85;25687;-83
2022/02/08 07:04:50;;;;;;;25.45;7.35;;;;;;;1.08;74.68;97748.78;1662107;86;25750;-82
2022/02/08 07:07:17;;;;;;;28.83;8.48;;;;;;;1.08;74.59;97751.44;1661979;86;25758;-82
2022/02/08 07:09:45;;;;;;;26.15;6.25;;;;;;;1.08;74.57;97754.09;1662183;85;26775;-82
2022/02/08 07:12:12;;;;;;;23.62;6.12;;;;;;;1.14;74.52;97757.14;1662118;86;25624;-81
2022/02/08 07:14:40;;;;;;;20.10;5.92;;;;;;;1.15;74.47;97761.48;1662206;86;25762;-82
2022/02/08 07:17:07;;;;;;;24.45;6.40;;;;;;;1.16;74.45;97765.81;1662200;85;25854;-83
2022/02/08 07:19:34;;;;;;;18.92;5.53;;;;;;;1.18;74.40;97763.86;1662229;86;25791;-84
2022/02/08 07:22:00;;;;;;;22.40;5.58;;;;;;;1.25;74.37;97764.45;1662091;86;28423;-82
2022/02/08 07:24:28;;;;;;;16.95;6.42;;;;;;;1.29;74.16;97769.84;1662020;86;25804;-86
2022/02/08 07:26:55;;;;;;;25.10;7.00;;;;;;;1.40;74.43;97768.83;1662208;86;25739;-83
2022/02/08 07:29:22;;;;;;;23.57;5.92;;;;;;;1.53;74.27;97783.97;1662074;86;26547;-83
2022/02/08 07:31:54;;;;;;;16.27;5.40;;;;;;;1.57;73.95;97772.03;1662140;86;25816;-84
2022/02/08 07:34:33;;;;;;;17.90;5.15;;;;;;;1.60;73.72;97776.23;1660841;85;26663;-83
2022/02/08 07:37:04;;;;;;;26.12;6.00;;;;;;;1.65;73.63;97774.82;1656643;86;26178;-83
2022/02/08 07:39:37;;;;;;;26.02;5.58;;;;;;;1.66;73.41;97787.64;1661281;85;25690;-83
2022/02/08 07:41:51;;;;;;;26.42;7.17;;;;;;;1.67;73.37;97788.83;1660298;85;25806;-83
2022/02/08 07:44:18;;;;;;;30.82;9.05;;;;;;;1.68;73.11;97790.50;1662247;85;25773;-83
2022/02/08 07:46:44;;;;;;;18.62;6.30;;;;;;;1.72;73.04;97794.53;1662427;86;27987;-83
2022/02/08 07:49:13;;;;;;;18.50;6.30;;;;;;;1.76;72.90;97798.58;1659123;85;25760;-83
2022/02/08 07:51:41;;;;;;;22.60;6.60;;;;;;;1.78;72.86;97796.63;1663131;85;25774;-82
2022/02/08 07:54:08;;;;;;;20.32;5.10;;;;;;;1.77;72.57;97802.92;1652892;85;25766;-84
2022/02/08 07:56:35;;;;;;;21.60;6.78;;;;;;;1.78;72.56;97809.09;1635803;86;25818;-90
2022/02/08 07:59:02;;;;;;;16.77;4.58;;;;;;;1.77;72.50;97817.56;1655914;86;27541;-83
2022/02/08 08:01:32;;;;;;;14.90;3.83;;;;;;;1.81;72.44;97814.94;1662655;85;26404;-83
2022/02/08 08:03:58;;;;;;;18.02;3.98;;;;;;;1.90;72.39;97811.06;1662070;86;26583;-83
2022/02/08 08:06:25;;;;;;;23.32;4.72;;;;;;;1.98;72.25;97819.14;1662958;86;25747;-84
2022/02/08 08:08:52;;;;;;;23.05;5.03;;;;;;;2.05;72.15;97809.59;1663018;85;25810;-83
2022/02/08 08:11:22;;;;;;;21.97;5.60;;;;;;;2.05;71.87;97813.59;1662923;86;28354;-84
2022/02/08 08:14:00;;;;;;;15.88;5.35;;;;;;;2.09;71.80;97816.28;1663090;86;25788;-85
2022/02/08 08:16:26;;;;;;;20.05;4.92;;;;;;;2.10;71.61;97816.62;1662602;85;25739;-83
2022/02/08 08:19:17;;;;;;;13.80;4.20;;;;;;;2.13;71.52;97825.17;1662730;85;25801;-84
2022/02/08 08:21:33;;;;;;;19.50;4.65;;;;;;;2.15;71.35;97816.55;1661915;85;25761;-82
2022/02/08 08:24:03;;;;;;;14.20;3.52;;;;;;;2.18;71.24;97828.70;1662838;85;27428;-82
2022/02/08 08:26:30;;;;;;;16.75;3.83;;;;;;;2.20;71.23;97821.89;1662890;86;25810;-82
2022/02/08 08:28:57;;;;;;;20.15;3.95;;;;;;;2.19;70.93;97818.39;1663097;86;25721;-83
2022/02/08 08:31:24;;;;;;;18.42;3.83;;;;;;;2.26;70.97;97819.49;1663048;86;25749;-82
2022/02/08 08:33:51;;;;;;;18.87;4.45;;;;;;;2.31;70.85;97815.03;1663021;86;25753;-83
2022/02/08 08:36:19;;;;;;;16.67;4.40;;;;;;;2.38;70.59;97818.30;1662723;86;27435;-82
2022/02/08 08:38:53;;;;;;;16.42;4.22;;;;;;;2.49;70.39;97824.73;1662725;86;25762;-82
2022/02/08 08:41:25;;;;;;;17.02;3.72;;;;;;;2.53;70.21;97828.79;1662449;85;26044;-81
2022/02/08 08:51:50;;;;;;;14.43;3.75;;;;;;;2.70;69.60;97820.44;1657863;86;25766;-82
2022/02/08 08:54:16;;;;;;;20.62;4.37;;;;;;;2.61;69.37;97819.19;1657770;85;25905;-82
2022/02/08 08:56:45;;;;;;;12.43;3.67;;;;;;;2.56;69.20;97814.30;1657880;86;26531;-83
2022/02/08 08:59:14;;;;;;;16.73;3.60;;;;;;;2.57;69.15;97820.47;1658090;86;26139;-84
2022/02/08 09:01:40;;;;;;;18.82;3.85;;;;;;;2.61;69.14;97823.19;1657925;86;27621;-81
2022/02/08 09:04:07;;;;;;;15.80;4.83;;;;;;;2.63;69.00;97821.21;1657898;85;26411;-80
2022/02/08 09:06:36;;;;;;;24.05;7.50;;;;;;;2.68;69.04;97825.58;1657965;86;25841;-81
2022/02/08 09:09:14;;;;;;;21.20;5.55;;;;;;;2.66;68.87;97827.05;1661026;86;25785;-83
2022/02/08 09:14:09;;;;;;;26.20;6.33;;;;;;;2.70;68.60;97808.45;1658024;86;27583;-85
2022/02/08 09:24:39;;;;;;;19.32;4.08;;;;;;;2.94;68.07;97799.83;1657824;86;25668;-84
2022/02/08 09:29:42;;;;;;;16.05;3.98;;;;;;;2.99;67.69;97788.22;1657761;86;25271;-82
2022/02/08 09:32:15;;;;;;;16.37;3.58;;;;;;;3.06;67.73;97785.25;1657496;86;26325;-82
2022/02/08 09:34:43;;;;;;;22.30;3.47;;;;;;;3.06;67.46;97785.25;1657608;86;26250;-82
2022/02/08 09:37:11;;;;;;;12.73;3.22;;;;;;;3.03;67.18;97789.55;1657971;86;25305;-83
2022/02/08 09:39:43;;;;;;;10.32;2.65;;;;;;;3.02;67.35;97778.55;1658045;86;26858;-82
2022/02/08 09:42:10;;;;;;;16.40;3.45;;;;;;;2.94;67.02;97788.31;1659120;85;25957;-81
2022/02/08 09:44:39;;;;;;;12.63;3.95;;;;;;;2.86;66.85;97787.27;1657672;86;25767;-82
2022/02/08 09:47:12;;;;;;;16.82;4.10;;;;;;;2.85;66.92;97780.76;1657824;85;26376;-82
2022/02/08 09:49:42;;;;;;;11.47;3.40;;;;;;;2.84;66.99;97787.92;1657546;86;25672;-81
2022/02/08 09:52:07;;;;;;;15.38;3.85;;;;;;;2.80;66.91;97786.54;1661745;85;27471;-81
2022/02/08 09:54:35;;;;;;;20.48;5.17;;;;;;;2.79;66.75;97788.02;1660046;86;26366;-82
2022/02/08 09:57:01;;;;;;;13.80;4.67;;;;;;;2.83;66.23;97798.23;1656822;86;26032;-81
2022/02/08 09:59:28;;;;;;;17.65;4.08;;;;;;;2.80;66.64;97791.03;1656956;86;26460;-82
2022/02/08 10:01:57;;;;;;;15.05;3.52;;;;;;;2.81;66.82;97794.05;1656906;86;25868;-81
2022/02/08 10:04:26;;;;;;;17.65;4.42;;;;;;;2.76;66.68;97797.19;1656679;86;27474;-83
2022/02/08 10:06:52;;;;;;;19.77;4.65;;;;;;;2.78;66.68;97795.67;1656774;86;26312;-82
2022/02/08 10:09:19;;;;;;;15.53;4.45;;;;;;;2.83;66.75;97798.73;1657528;86;25769;-81
2022/02/08 10:11:58;;;;;;;16.52;4.42;;;;;;;2.85;66.81;97800.75;1657004;86;25816;-81
2022/02/08 10:18:52;;;;;;;13.83;3.85;;;;;;;2.85;66.60;97807.42;1657012;86;25776;-82
2022/02/08 10:22:47;;;;;;;16.70;4.40;;;;;;;2.87;66.84;97800.11;1656713;86;25753;-82
2022/02/08 10:25:31;;;;;;;17.05;5.03;;;;;;;2.99;66.83;97806.87;1656632;86;25741;-83
2022/02/08 10:28:53;;;;;;;14.13;4.33;;;;;;;3.04;67.08;97802.40;1655177;86;26206;-82
2022/02/08 10:38:44;;;;;;;17.02;5.42;;;;;;;3.05;66.70;97790.74;1656681;86;25776;-83
2022/02/08 10:41:21;;;;;;;17.95;5.15;;;;;;;3.06;66.68;97781.25;1656224;86;25833;-82
2022/02/08 10:44:02;;;;;;;19.82;5.12;;;;;;;3.12;66.74;97781.14;1656759;86;27413;-83
2022/02/08 10:46:29;;;;;;;14.45;3.83;;;;;;;3.16;66.54;97779.33;1655872;86;25832;-83
2022/02/08 10:49:10;;;;;;;15.90;4.62;;;;;;;3.21;66.57;97779.70;1657787;85;25881;-83
2022/02/08 10:54:15;;;;;;;24.25;7.47;;;;;;;3.42;66.49;97771.33;1658189;86;25768;-84
2022/02/08 10:56:39;;;;;;;29.60;9.23;;;;;;;3.57;66.31;97766.25;1657197;86;27407;-82
2022/02/08 10:59:16;;;;;;;24.07;9.35;;;;;;;3.72;66.39;97763.83;1658603;86;25653;-83
2022/02/08 11:01:44;;;;;;;21.95;7.95;;;;;;;3.82;66.20;97765.38;1656934;86;25759;-84
2022/02/08 11:04:12;;;;;;;19.55;7.37;;;;;;;3.87;65.87;97766.20;1657021;86;25721;-83
2022/02/08 11:06:52;;;;;;;21.42;6.80;;;;;;;3.96;65.96;97762.09;1657141;86;26259;-85
2022/02/08 11:09:27;;;;;;;17.27;6.80;;;;;;;4.09;65.79;97761.64;1657411;86;27419;-85
2022/02/08 11:12:26;;;;;;;19.45;6.78;;;;;;;4.25;65.75;97765.67;1656807;86;25990;-85
2022/02/08 11:20:19;;;;;;;23.32;7.45;;;;;;;4.26;65.00;97752.66;1658637;86;25759;-83
2022/02/08 11:23:01;;;;;;;18.52;6.20;;;;;;;4.25;64.73;97743.46;1633985;86;28309;-85
2022/02/08 11:25:34;;;;;;;19.90;8.48;;;;;;;4.35;64.76;97754.34;1657738;86;25853;-83
2022/02/08 11:28:16;;;;;;;22.95;6.37;;;;;;;4.39;64.35;97740.16;1657208;86;25713;-83
2022/02/08 11:30:54;;;;;;;20.20;7.65;;;;;;;4.47;64.50;97734.81;1657475;86;26365;-83
2022/02/08 11:47:10;;;;;;;16.82;6.70;;;;;;;5.68;63.39;97713.77;1658019;86;25685;-85
2022/02/08 11:49:32;;;;;;;11.53;4.08;;;;;;;5.84;63.39;97710.20;1653647;86;27390;-82
2022/02/08 11:55:15;;;;;;;14.00;4.72;;;;;;;5.92;62.51;97704.83;1656722;86;26294;-82
2022/02/08 11:57:52;;;;;;;13.03;4.72;;;;;;;6.09;62.66;97697.55;1653690;86;25767;-82
2022/02/08 12:00:14;;;;;;;14.85;5.15;;;;;;;6.16;62.23;97695.02;1653248;86;26319;-82
2022/02/08 12:07:35;;;;;;;16.37;6.37;;;;;;;5.85;61.24;97687.76;1656654;86;25772;-82
2022/02/08 12:10:23;;;;;;;15.47;4.57;;;;;;;5.76;61.33;97686.13;1657050;86;25836;-82
2022/02/08 12:35:13;;;;;;;12.85;5.58;;;;;;;5.48;60.16;97661.63;1656789;86;25723;-82
2022/02/08 12:54:23;;;;;;;16.57;6.70;;;;;;;5.71;59.49;97646.97;1662286;86;25771;-82
2022/02/08 12:59:42;;;;;;;14.55;6.45;;;;;;;5.87;59.48;97634.84;1661012;84;25715;-84
2022/02/08 13:02:13;;;;;;;20.35;6.37;;;;;;;5.93;59.39;97634.16;1658807;84;25799;-84
2022/02/08 13:18:48;;;;;;;16.90;5.42;;;;;;;5.72;58.93;97591.05;1662228;86;26767;-83
2022/02/08 14:01:49;;;;;;;18.37;8.35;;;;;;;4.93;58.96;97612.98;1662125;86;25911;-84
2022/02/08 14:09:37;;;;;;;16.15;5.37;;;;;;;4.87;58.87;97606.95;1662312;86;25833;-82
2022/02/08 14:14:55;;;;;;;16.73;7.43;;;;;;;4.87;58.89;97588.73;1662470;86;26369;-84
2022/02/08 14:17:41;;;;;;;22.98;8.43;;;;;;;4.89;58.89;97588.06;1661554;85;27655;-85
2022/02/08 14:20:28;;;;;;;19.75;7.80;;;;;;;4.89;58.96;97594.25;1661467;85;25317;-81
2022/02/08 14:22:47;;;;;;;24.07;9.30;;;;;;;4.92;59.02;97582.38;1659957;86;25777;-82
2022/02/08 14:30:23;;;;;;;16.07;6.92;;;;;;;4.92;58.98;97575.19;1661210;84;27436;-83
2022/02/08 14:32:55;;;;;;;29.37;9.53;;;;;;;4.90;59.04;97575.02;1660842;85;26091;-83
2022/02/08 15:00:22;;;;;;;22.62;10.63;;;;;;;4.59;59.93;97557.03;1662127;86;25824;-82
2022/02/08 15:07:58;;;;;;;18.77;8.30;;;;;;;4.48;60.20;97557.89;1661650;84;25850;-82
2022/02/08 15:10:21;;;;;;;19.85;8.55;;;;;;;4.44;60.26;97557.91;1660144;84;27363;-83
2022/02/08 15:12:52;;;;;;;20.55;9.05;;;;;;;4.35;60.21;97565.08;1661618;85;25817;-87
2022/02/08 15:15:24;;;;;;;25.62;9.98;;;;;;;4.30;60.30;97556.75;1661648;85;25742;-84
2022/02/08 15:17:42;;;;;;;32.00;12.40;;;;;;;4.25;60.28;97560.42;1661034;85;26478;-84
2022/02/08 15:20:11;;;;;;;20.30;9.85;;;;;;;4.25;60.47;97565.77;1662250;86;25748;-86
2022/02/08 15:22:39;;;;;;;27.85;11.50;;;;;;;4.27;60.45;97569.11;1662141;86;28112;-84
2022/02/08 15:25:12;;;;;;;129.50;86.37;;;;;;;4.30;60.57;97569.62;1662019;86;25755;-87
2022/02/08 15:27:37;;;;;;;76.05;38.25;;;;;;;4.38;60.81;97567.93;1661387;85;25685;-86
2022/02/08 15:30:06;;;;;;;42.62;15.90;;;;;;;4.45;60.91;97556.41;1662073;85;25814;-88
2022/02/08 15:32:35;;;;;;;38.80;17.15;;;;;;;4.48;60.61;97556.05;1662180;85;25792;-86
2022/02/08 15:35:04;;;;;;;34.00;15.20;;;;;;;4.44;60.51;97559.25;1662114;85;27415;-84
2022/02/08 15:37:33;;;;;;;27.87;12.40;;;;;;;4.36;60.54;97561.41;1661724;84;25807;-84
2022/02/08 15:40:03;;;;;;;24.40;10.43;;;;;;;4.29;60.58;97551.08;1661361;84;25867;-87
2022/02/08 15:42:34;;;;;;;32.30;14.18;;;;;;;4.28;60.66;97564.94;1662216;86;25819;-82
2022/02/08 15:45:12;;;;;;;25.92;12.40;;;;;;;4.25;60.68;97563.09;1662168;86;26433;-83
2022/02/08 15:47:32;;;;;;;37.58;17.37;;;;;;;4.17;60.63;97569.28;1660543;86;27416;-82
2022/02/08 15:50:06;;;;;;;48.98;22.07;;;;;;;4.14;60.76;97569.61;1662332;85;25689;-83
2022/02/08 15:52:57;;;;;;;39.08;16.50;;;;;;;4.15;60.93;97575.79;1662247;85;25815;-82
2022/02/08 15:55:00;;;;;;;37.93;15.83;;;;;;;4.14;61.04;97574.95;1661296;86;25823;-83
2022/02/08 15:58:03;;;;;;;22.35;9.65;;;;;;;4.08;60.97;97580.14;1663191;85;25771;-86
2022/02/08 16:00:23;;;;;;;42.93;20.95;;;;;;;4.01;61.02;97577.28;1658558;86;27414;-83
2022/02/08 16:05:37;;;;;;;29.23;12.63;;;;;;;3.97;61.29;97568.80;1662893;86;25827;-84
2022/02/08 16:07:58;;;;;;;32.73;14.53;;;;;;;3.91;61.25;97572.11;1661812;85;25752;-83
2022/02/08 16:10:29;;;;;;;34.73;13.40;;;;;;;3.85;61.49;97564.78;1663084;85;25758;-82
2022/02/08 16:13:09;;;;;;;41.08;17.10;;;;;;;3.85;61.63;97568.78;1662407;85;28464;-85
2022/02/08 16:15:40;;;;;;;58.95;21.85;;;;;;;3.88;61.82;97572.93;1661199;86;25838;-82
2022/02/08 16:55:13;;;;;;;21.25;8.80;;;;;;;3.44;65.20;97547.00;1661796;86;26322;-82
2022/02/08 16:57:36;;;;;;;19.05;10.25;;;;;;;3.39;65.54;97542.64;1658156;86;26443;-81
2022/02/08 16:59:52;;;;;;;22.65;11.68;;;;;;;3.41;65.74;97541.98;1657260;86;26689;-83
2022/02/08 17:02:21;;;;;;;23.42;11.75;;;;;;;3.41;65.64;97549.49;1662106;86;25728;-81
2022/02/08 17:04:48;;;;;;;24.67;10.78;;;;;;;3.41;65.89;97555.33;1661905;86;27392;-81
2022/02/08 17:07:14;;;;;;;23.20;11.43;;;;;;;3.39;65.79;97554.16;1662007;86;25844;-84
2022/02/08 17:09:47;;;;;;;22.07;10.82;;;;;;;3.35;65.95;97550.66;1662091;86;26353;-82
2022/02/08 17:12:22;;;;;;;25.30;11.40;;;;;;;3.31;66.25;97543.97;1661708;86;25753;-81
2022/02/08 17:47:39;;;;;;;66.22;28.35;;;;;;;2.91;68.74;97558.81;1632715;86;25948;-81
2022/02/08 17:50:02;;;;;;;56.92;23.75;;;;;;;2.91;68.99;97565.48;1655441;86;26501;-83